sensor_id;sensor_type;location;lat;lon;timestamp;pressure;altitude;pressure_sealevel;temperature;humidity
18755;BME280;35061;47.664;9.166;2023-05-03T00:00:16;102269.69;;;9.21;100.00
18755;BME280;35061;47.664;9.166;2023-05-03T00:02:44;102270.48;;;9.22;100.00
18755;BME280;35061;47.664;9.166;2023-05-03T00:05:13;102265.02;;;9.28;100.00
18755;BME280;35061;47.664;9.166;2023-05-03T00:07:42;102265.02;;;9.28;100.00
18755;BME280;35061;47.664;9.166;2023-05-03T00:10:11;102267.53;;;9.26;100.00
18755;BME280;35061;47.664;9.166;2023-05-03T00:12:41;102263.41;;;9.27;100.00
18755;BME280;35061;47.664;9.166;2023-05-03T00:15:09;102265.90;;;9.25;100.00
18755;BME280;35061;47.664;9.166;2023-05-03T00:17:38;102259.95;;;9.19;100.00
18755;BME280;35061;47.664;9.166;2023-05-03T00:20:06;102262.10;;;9.15;100.00
18755;BME280;35061;47.664;9.166;2023-05-03T00:22:35;102260.50;;;9.14;100.00
18755;BME280;35061;47.664;9.166;2023-05-03T00:25:03;102260.93;;;9.12;100.00
18755;BME280;35061;47.664;9.166;2023-05-03T00:27:31;102259.68;;;9.13;100.00
18755;BME280;35061;47.664;9.166;2023-05-03T00:29:59;102258.08;;;9.12;100.00
18755;BME280;35061;47.664;9.166;2023-05-03T00:32:28;102262.98;;;9.12;100.00
18755;BME280;35061;47.664;9.166;2023-05-03T00:34:56;102260.60;;;9.10;100.00
18755;BME280;35061;47.664;9.166;2023-05-03T00:37:24;102254.95;;;9.06;100.00
18755;BME280;35061;47.664;9.166;2023-05-03T00:39:52;102250.85;;;9.07;100.00
18755;BME280;35061;47.664;9.166;2023-05-03T00:42:20;102250.66;;;8.98;100.00
18755;BME280;35061;47.664;9.166;2023-05-03T00:44:48;102247.91;;;8.94;100.00
18755;BME280;35061;47.664;9.166;2023-05-03T00:47:18;102243.89;;;8.92;100.00
18755;BME280;35061;47.664;9.166;2023-05-03T00:49:46;102251.05;;;8.84;100.00
18755;BME280;35061;47.664;9.166;2023-05-03T00:52:14;102240.62;;;8.77;100.00
18755;BME280;35061;47.664;9.166;2023-05-03T00:54:43;102237.02;;;8.73;100.00
18755;BME280;35061;47.664;9.166;2023-05-03T00:57:11;102233.36;;;8.72;100.00
18755;BME280;35061;47.664;9.166;2023-05-03T00:59:39;102232.48;;;8.75;100.00
18755;BME280;35061;47.664;9.166;2023-05-03T01:02:06;102236.92;;;8.76;100.00
18755;BME280;35061;47.664;9.166;2023-05-03T01:04:35;102234.08;;;8.76;100.00
18755;BME280;35061;47.664;9.166;2023-05-03T01:10:31;102224.59;;;8.79;100.00
18755;BME280;35061;47.664;9.166;2023-05-03T01:15:44;102220.05;;;8.82;100.00
18755;BME280;35061;47.664;9.166;2023-05-03T01:18:24;102221.23;;;8.85;100.00
18755;BME280;35061;47.664;9.166;2023-05-03T01:20:54;102223.62;;;8.86;100.00
18755;BME280;35061;47.664;9.166;2023-05-03T01:26:23;102221.39;;;8.94;100.00
18755;BME280;35061;47.664;9.166;2023-05-03T01:28:51;102219.33;;;8.94;100.00
18755;BME280;35061;47.664;9.166;2023-05-03T01:36:44;102219.95;;;9.02;100.00
18755;BME280;35061;47.664;9.166;2023-05-03T01:39:22;102227.28;;;9.03;100.00
18755;BME280;35061;47.664;9.166;2023-05-03T01:41:51;102224.30;;;9.07;100.00
18755;BME280;35061;47.664;9.166;2023-05-03T01:44:21;102225.55;;;9.06;100.00
18755;BME280;35061;47.664;9.166;2023-05-03T01:46:50;102232.09;;;9.06;100.00
18755;BME280;35061;47.664;9.166;2023-05-03T01:49:18;102241.93;;;9.05;100.00
18755;BME280;35061;47.664;9.166;2023-05-03T01:51:46;102239.51;;;9.04;100.00
18755;BME280;35061;47.664;9.166;2023-05-03T01:54:13;102240.33;;;9.04;100.00
18755;BME280;35061;47.664;9.166;2023-05-03T01:56:42;102234.96;;;9.06;100.00
18755;BME280;35061;47.664;9.166;2023-05-03T01:59:11;102233.69;;;9.07;100.00
18755;BME280;35061;47.664;9.166;2023-05-03T02:01:39;102236.99;;;9.06;100.00
18755;BME280;35061;47.664;9.166;2023-05-03T02:04:07;102243.53;;;9.06;100.00
18755;BME280;35061;47.664;9.166;2023-05-03T02:06:35;102230.94;;;9.04;100.00
18755;BME280;35061;47.664;9.166;2023-05-03T02:09:03;102228.98;;;9.01;100.00
18755;BME280;35061;47.664;9.166;2023-05-03T02:11:31;102228.42;;;9.06;100.00
18755;BME280;35061;47.664;9.166;2023-05-03T02:13:59;102228.78;;;9.08;100.00
18755;BME280;35061;47.664;9.166;2023-05-03T02:16:27;102234.87;;;9.10;100.00
18755;BME280;35061;47.664;9.166;2023-05-03T02:18:55;102238.49;;;9.11;100.00
18755;BME280;35061;47.664;9.166;2023-05-03T02:21:26;102246.21;;;9.14;100.00
18755;BME280;35061;47.664;9.166;2023-05-03T02:23:54;102246.21;;;9.14;100.00
18755;BME280;35061;47.664;9.166;2023-05-03T02:26:22;102245.49;;;9.10;100.00
18755;BME280;35061;47.664;9.166;2023-05-03T02:28:50;102248.23;;;9.13;100.00
18755;BME280;35061;47.664;9.166;2023-05-03T02:31:17;102244.58;;;9.13;100.00
18755;BME280;35061;47.664;9.166;2023-05-03T02:33:45;102249.94;;;9.11;100.00
18755;BME280;35061;47.664;9.166;2023-05-03T02:36:13;102245.91;;;9.08;100.00
18755;BME280;35061;47.664;9.166;2023-05-03T02:38:41;102242.81;;;9.02;100.00
18755;BME280;35061;47.664;9.166;2023-05-03T02:41:09;102245.23;;;9.04;100.00
18755;BME280;35061;47.664;9.166;2023-05-03T02:43:37;102243.63;;;9.03;100.00
18755;BME280;35061;47.664;9.166;2023-05-03T02:46:05;102243.53;;;9.06;100.00
18755;BME280;35061;47.664;9.166;2023-05-03T02:48:33;102241.01;;;9.08;100.00
18755;BME280;35061;47.664;9.166;2023-05-03T02:51:01;102242.62;;;9.10;100.00
18755;BME280;35061;47.664;9.166;2023-05-03T02:53:30;102244.94;;;9.15;100.00
18755;BME280;35061;47.664;9.166;2023-05-03T02:55:58;102242.45;;;9.17;100.00
18755;BME280;35061;47.664;9.166;2023-05-03T02:58:26;102245.66;;;9.19;100.00
18755;BME280;35061;47.664;9.166;2023-05-03T03:00:53;102235.48;;;9.18;100.00
18755;BME280;35061;47.664;9.166;2023-05-03T03:03:21;102239.93;;;9.19;100.00
18755;BME280;35061;47.664;9.166;2023-05-03T03:05:49;102239.24;;;9.15;100.00
18755;BME280;35061;47.664;9.166;2023-05-03T03:08:17;102239.24;;;9.15;100.00
18755;BME280;35061;47.664;9.166;2023-05-03T03:10:45;102235.81;;;9.20;100.00
18755;BME280;35061;47.664;9.166;2023-05-03T03:13:13;102226.00;;;9.21;100.00
18755;BME280;35061;47.664;9.166;2023-05-03T03:15:41;102220.18;;;9.25;100.00
18755;BME280;35061;47.664;9.166;2023-05-03T03:18:09;102225.80;;;9.28;100.00
18755;BME280;35061;47.664;9.166;2023-05-03T03:20:37;102229.44;;;9.29;100.00
18755;BME280;35061;47.664;9.166;2023-05-03T03:23:05;102238.04;;;9.29;100.00
18755;BME280;35061;47.664;9.166;2023-05-03T03:25:33;102231.53;;;9.28;100.00
18755;BME280;35061;47.664;9.166;2023-05-03T03:28:01;102225.80;;;9.28;100.00
18755;BME280;35061;47.664;9.166;2023-05-03T03:30:29;102229.01;;;9.30;100.00
18755;BME280;35061;47.664;9.166;2023-05-03T03:32:58;102227.31;;;9.33;100.00
18755;BME280;35061;47.664;9.166;2023-05-03T03:35:26;102225.25;;;9.33;100.00
18755;BME280;35061;47.664;9.166;2023-05-03T03:37:54;102231.34;;;9.35;100.00
18755;BME280;35061;47.664;9.166;2023-05-03T03:40:22;102230.94;;;9.33;100.00
18755;BME280;35061;47.664;9.166;2023-05-03T03:42:50;102233.30;;;9.39;100.00
18755;BME280;35061;47.664;9.166;2023-05-03T03:45:18;102227.57;;;9.39;100.00
18755;BME280;35061;47.664;9.166;2023-05-03T03:47:46;102221.03;;;9.38;100.00
18755;BME280;35061;47.664;9.166;2023-05-03T03:50:14;102229.60;;;9.38;100.00
18755;BME280;35061;47.664;9.166;2023-05-03T03:52:41;102230.61;;;9.31;100.00
18755;BME280;35061;47.664;9.166;2023-05-03T03:55:09;102233.13;;;9.29;100.00
18755;BME280;35061;47.664;9.166;2023-05-03T03:57:38;102234.38;;;9.28;100.00
18755;BME280;35061;47.664;9.166;2023-05-03T04:00:06;102241.44;;;9.24;100.00
18755;BME280;35061;47.664;9.166;2023-05-03T04:02:38;102238.69;;;9.20;100.00
18755;BME280;35061;47.664;9.166;2023-05-03T04:05:06;102240.03;;;9.15;100.00
18755;BME280;35061;47.664;9.166;2023-05-03T04:07:34;102242.52;;;9.13;100.00
18755;BME280;35061;47.664;9.166;2023-05-03T04:10:03;102239.31;;;9.11;100.00
18755;BME280;35061;47.664;9.166;2023-05-03T04:12:31;102248.23;;;9.13;100.00
18755;BME280;35061;47.664;9.166;2023-05-03T04:15:00;102247.81;;;9.15;100.00
18755;BME280;35061;47.664;9.166;2023-05-03T04:17:29;102254.78;;;9.14;100.00
18755;BME280;35061;47.664;9.166;2023-05-03T04:19:56;102254.78;;;9.14;100.00
18755;BME280;35061;47.664;9.166;2023-05-03T04:22:24;102257.63;;;9.14;100.00
18755;BME280;35061;47.664;9.166;2023-05-03T04:24:52;102258.41;;;9.14;100.00
18755;BME280;35061;47.664;9.166;2023-05-03T04:27:21;102261.65;;;9.16;100.00
18755;BME280;35061;47.664;9.166;2023-05-03T04:29:49;102258.77;;;9.16;100.00
18755;BME280;35061;47.664;9.166;2023-05-03T04:32:17;102264.85;;;9.18;100.00
18755;BME280;35061;47.664;9.166;2023-05-03T04:34:49;102259.48;;;9.20;100.00
18755;BME280;35061;47.664;9.166;2023-05-03T04:37:20;102258.67;;;9.20;100.00
18755;BME280;35061;47.664;9.166;2023-05-03T04:39:48;102257.98;;;9.16;100.00
18755;BME280;35061;47.664;9.166;2023-05-03T04:42:17;102253.54;;;9.15;100.00
18755;BME280;35061;47.664;9.166;2023-05-03T04:44:45;102264.59;;;9.13;100.00
18755;BME280;35061;47.664;9.166;2023-05-03T04:47:13;102264.23;;;9.11;100.00
18755;BME280;35061;47.664;9.166;2023-05-03T04:49:41;102264.78;;;9.05;100.00
18755;BME280;35061;47.664;9.166;2023-05-03T04:52:09;102260.77;;;9.03;100.00
18755;BME280;35061;47.664;9.166;2023-05-03T04:54:37;102267.37;;;9.00;100.00
18755;BME280;35061;47.664;9.166;2023-05-03T04:57:05;102269.07;;;8.97;100.00
18755;BME280;35061;47.664;9.166;2023-05-03T04:59:33;102262.10;;;8.98;100.00
18755;BME280;35061;47.664;9.166;2023-05-03T05:02:01;102266.55;;;8.99;100.00
18755;BME280;35061;47.664;9.166;2023-05-03T05:04:29;102263.28;;;9.01;100.00
18755;BME280;35061;47.664;9.166;2023-05-03T05:06:57;102275.41;;;9.05;100.00
18755;BME280;35061;47.664;9.166;2023-05-03T05:09:27;102277.34;;;9.08;100.00
18755;BME280;35061;47.664;9.166;2023-05-03T05:11:56;102273.62;;;9.11;100.00
18755;BME280;35061;47.664;9.166;2023-05-03T05:14:25;102276.75;;;9.17;100.00
18755;BME280;35061;47.664;9.166;2023-05-03T05:16:55;102280.64;;;9.23;100.00
18755;BME280;35061;47.664;9.166;2023-05-03T05:19:23;102277.60;;;9.30;100.00
18755;BME280;35061;47.664;9.166;2023-05-03T05:21:51;102280.80;;;9.32;100.00
18755;BME280;35061;47.664;9.166;2023-05-03T05:24:19;102294.25;;;9.35;100.00
18755;BME280;35061;47.664;9.166;2023-05-03T05:26:47;102296.54;;;9.41;100.00
18755;BME280;35061;47.664;9.166;2023-05-03T05:29:15;102304.58;;;9.46;100.00
18755;BME280;35061;47.664;9.166;2023-05-03T05:31:43;102297.95;;;9.49;100.00
18755;BME280;35061;47.664;9.166;2023-05-03T05:34:11;102305.17;;;9.54;100.00
18755;BME280;35061;47.664;9.166;2023-05-03T05:36:39;102299.38;;;9.57;100.00
18755;BME280;35061;47.664;9.166;2023-05-03T05:39:07;102300.88;;;9.62;100.00
18755;BME280;35061;47.664;9.166;2023-05-03T05:41:36;102309.35;;;9.66;100.00
18755;BME280;35061;47.664;9.166;2023-05-03T05:44:04;102309.71;;;9.68;100.00
18755;BME280;35061;47.664;9.166;2023-05-03T05:46:32;102311.32;;;9.69;100.00
18755;BME280;35061;47.664;9.166;2023-05-03T05:49:00;102310.76;;;9.74;100.00
18755;BME280;35061;47.664;9.166;2023-05-03T05:51:28;102313.51;;;9.77;100.00
18755;BME280;35061;47.664;9.166;2023-05-03T05:53:58;102306.09;;;9.80;99.99
18755;BME280;35061;47.664;9.166;2023-05-03T05:56:26;102300.82;;;9.78;100.00
18755;BME280;35061;47.664;9.166;2023-05-03T05:58:54;102307.27;;;9.83;99.87
18755;BME280;35061;47.664;9.166;2023-05-03T06:01:22;102307.13;;;9.86;99.79
18755;BME280;35061;47.664;9.166;2023-05-03T06:03:50;102310.73;;;9.90;99.40
18755;BME280;35061;47.664;9.166;2023-05-03T06:06:18;102307.75;;;9.94;98.78
18755;BME280;35061;47.664;9.166;2023-05-03T06:08:46;102313.24;;;10.01;98.96
18755;BME280;35061;47.664;9.166;2023-05-03T06:11:16;102309.84;;;10.07;98.82
18755;BME280;35061;47.664;9.166;2023-05-03T06:13:44;102306.87;;;10.10;98.48
18755;BME280;35061;47.664;9.166;2023-05-03T06:16:12;102312.85;;;10.16;98.23
18755;BME280;35061;47.664;9.166;2023-05-03T06:18:40;102312.27;;;10.21;98.16
18755;BME280;35061;47.664;9.166;2023-05-03T06:21:08;102309.55;;;10.30;98.03
18755;BME280;35061;47.664;9.166;2023-05-03T06:23:38;102302.91;;;10.33;97.45
18755;BME280;35061;47.664;9.166;2023-05-03T06:26:07;102311.28;;;10.41;97.26
18755;BME280;35061;47.664;9.166;2023-05-03T06:28:35;102312.23;;;10.51;97.17
18755;BME280;35061;47.664;9.166;2023-05-03T06:31:03;102303.66;;;10.64;97.25
18755;BME280;35061;47.664;9.166;2023-05-03T06:33:31;102308.34;;;10.70;95.25
18755;BME280;35061;47.664;9.166;2023-05-03T06:35:59;102310.30;;;10.86;96.64
18755;BME280;35061;47.664;9.166;2023-05-03T06:38:28;102305.50;;;10.96;94.12
18755;BME280;35061;47.664;9.166;2023-05-03T06:40:56;102313.09;;;11.25;94.87
18755;BME280;35061;47.664;9.166;2023-05-03T06:43:24;102308.83;;;11.30;92.74
18755;BME280;35061;47.664;9.166;2023-05-03T06:45:52;102305.30;;;11.26;92.98
18755;BME280;35061;47.664;9.166;2023-05-03T06:48:20;102308.41;;;11.19;92.78
18755;BME280;35061;47.664;9.166;2023-05-03T06:50:48;102318.05;;;11.12;92.71
18755;BME280;35061;47.664;9.166;2023-05-03T06:53:17;102319.55;;;11.03;92.38
18755;BME280;35061;47.664;9.166;2023-05-03T06:55:45;102307.52;;;10.96;92.09
18755;BME280;35061;47.664;9.166;2023-05-03T06:58:13;102309.62;;;10.95;92.03
18755;BME280;35061;47.664;9.166;2023-05-03T07:00:42;102301.90;;;10.92;91.46
18755;BME280;35061;47.664;9.166;2023-05-03T07:03:10;102301.90;;;10.92;91.20
18755;BME280;35061;47.664;9.166;2023-05-03T07:05:39;102304.13;;;10.88;90.93
18755;BME280;35061;47.664;9.166;2023-05-03T07:08:07;102301.57;;;10.90;90.72
18755;BME280;35061;47.664;9.166;2023-05-03T07:10:35;102299.97;;;10.89;90.45
18755;BME280;35061;47.664;9.166;2023-05-03T07:13:03;102307.42;;;10.86;90.07
18755;BME280;35061;47.664;9.166;2023-05-03T07:15:31;102296.77;;;10.87;90.05
18755;BME280;35061;47.664;9.166;2023-05-03T07:17:59;102297.45;;;10.91;89.99
18755;BME280;35061;47.664;9.166;2023-05-03T07:20:27;102291.60;;;10.95;89.97
18755;BME280;35061;47.664;9.166;2023-05-03T07:22:55;102292.74;;;10.97;89.52
18755;BME280;35061;47.664;9.166;2023-05-03T07:25:23;102288.95;;;11.00;89.54
18755;BME280;35061;47.664;9.166;2023-05-03T07:27:50;102283.69;;;10.99;89.66
18755;BME280;35061;47.664;9.166;2023-05-03T07:30:19;102291.70;;;11.04;89.22
18755;BME280;35061;47.664;9.166;2023-05-03T07:32:47;102287.91;;;11.07;89.40
18755;BME280;35061;47.664;9.166;2023-05-03T07:35:15;102291.34;;;11.15;89.53
18755;BME280;35061;47.664;9.166;2023-05-03T07:37:44;102283.42;;;11.19;89.20
18755;BME280;35061;47.664;9.166;2023-05-03T07:40:11;102281.10;;;11.27;88.92
18755;BME280;35061;47.664;9.166;2023-05-03T07:42:39;102276.98;;;11.28;88.77
18755;BME280;35061;47.664;9.166;2023-05-03T07:45:08;102270.67;;;11.33;88.50
18755;BME280;35061;47.664;9.166;2023-05-03T07:47:36;102277.51;;;11.36;88.11
18755;BME280;35061;47.664;9.166;2023-05-03T07:50:06;102273.05;;;11.35;87.98
18755;BME280;35061;47.664;9.166;2023-05-03T07:52:35;102261.25;;;11.33;87.74
18755;BME280;35061;47.664;9.166;2023-05-03T07:55:05;102264.91;;;11.33;87.46
18755;BME280;35061;47.664;9.166;2023-05-03T07:57:33;102261.13;;;11.36;87.64
18755;BME280;35061;47.664;9.166;2023-05-03T08:00:02;102260.99;;;11.40;87.65
18755;BME280;35061;47.664;9.166;2023-05-03T08:02:32;102260.86;;;11.43;87.23
18755;BME280;35061;47.664;9.166;2023-05-03T08:05:00;102259.00;;;11.50;86.68
18755;BME280;35061;47.664;9.166;2023-05-03T08:07:28;102257.27;;;11.52;86.70
18755;BME280;35061;47.664;9.166;2023-05-03T08:09:57;102244.28;;;11.61;86.85
18755;BME280;35061;47.664;9.166;2023-05-03T08:12:25;102250.20;;;11.66;86.54
18755;BME280;35061;47.664;9.166;2023-05-03T08:14:55;102243.07;;;11.71;86.61
18755;BME280;35061;47.664;9.166;2023-05-03T08:17:23;102246.93;;;11.77;86.12
18755;BME280;35061;47.664;9.166;2023-05-03T08:19:51;102243.46;;;11.82;86.19
18755;BME280;35061;47.664;9.166;2023-05-03T08:22:19;102239.54;;;11.89;85.99
18755;BME280;35061;47.664;9.166;2023-05-03T08:24:47;102231.37;;;11.87;85.93
18755;BME280;35061;47.664;9.166;2023-05-03T08:27:15;102234.30;;;11.97;85.99
18755;BME280;35061;47.664;9.166;2023-05-03T08:29:44;102222.24;;;12.02;85.91
18755;BME280;35061;47.664;9.166;2023-05-03T08:32:12;102229.93;;;12.05;85.65
18755;BME280;35061;47.664;9.166;2023-05-03T08:34:39;102224.50;;;12.07;85.37
18755;BME280;35061;47.664;9.166;2023-05-03T08:37:08;102222.30;;;12.11;85.05
18755;BME280;35061;47.664;9.166;2023-05-03T08:39:35;102221.82;;;12.13;84.70
18755;BME280;35061;47.664;9.166;2023-05-03T08:42:07;102226.46;;;12.20;84.57
18755;BME280;35061;47.664;9.166;2023-05-03T08:44:36;102226.20;;;12.27;84.31
18755;BME280;35061;47.664;9.166;2023-05-03T08:47:05;102216.36;;;12.37;84.29
18755;BME280;35061;47.664;9.166;2023-05-03T08:49:34;102224.56;;;12.48;84.37
18755;BME280;35061;47.664;9.166;2023-05-03T08:52:05;102223.32;;;12.59;84.37
18755;BME280;35061;47.664;9.166;2023-05-03T08:54:33;102229.86;;;12.68;84.34
18755;BME280;35061;47.664;9.166;2023-05-03T08:57:01;102228.48;;;12.82;84.37
18755;BME280;35061;47.664;9.166;2023-05-03T08:59:29;102231.37;;;12.92;84.11
18755;BME280;35061;47.664;9.166;2023-05-03T09:01:57;102224.50;;;12.98;83.58
18755;BME280;35061;47.664;9.166;2023-05-03T09:04:32;102220.05;;;13.07;83.24
18755;BME280;35061;47.664;9.166;2023-05-03T09:07:10;102225.31;;;13.18;82.91
18755;BME280;35061;47.664;9.166;2023-05-03T09:09:39;102220.41;;;13.28;82.80
18755;BME280;35061;47.664;9.166;2023-05-03T09:12:08;102215.27;;;13.41;81.25
18755;BME280;35061;47.664;9.166;2023-05-03T09:14:46;102222.80;;;13.57;80.99
18755;BME280;35061;47.664;9.166;2023-05-03T09:17:16;102222.63;;;13.70;80.16
18755;BME280;35061;47.664;9.166;2023-05-03T09:19:54;102221.66;;;13.82;80.22
18755;BME280;35061;47.664;9.166;2023-05-03T09:22:26;102217.14;;;13.91;79.79
18755;BME280;35061;47.664;9.166;2023-05-03T09:24:56;102219.37;;;13.96;79.17
18755;BME280;35061;47.664;9.166;2023-05-03T09:27:25;102220.34;;;14.02;79.26
18755;BME280;35061;47.664;9.166;2023-05-03T09:29:54;102218.52;;;14.14;79.13
18755;BME280;35061;47.664;9.166;2023-05-03T09:32:22;102210.47;;;14.28;77.34
18755;BME280;35061;47.664;9.166;2023-05-03T09:35:07;102212.53;;;14.36;78.42
18755;BME280;35061;47.664;9.166;2023-05-03T09:37:35;102206.38;;;14.44;77.85
18755;BME280;35061;47.664;9.166;2023-05-03T09:40:05;102212.30;;;14.49;77.59
18755;BME280;35061;47.664;9.166;2023-05-03T09:42:38;102208.09;;;14.60;77.38
18755;BME280;35061;47.664;9.166;2023-05-03T09:45:10;102203.37;;;14.72;77.03
18755;BME280;35061;47.664;9.166;2023-05-03T09:48:05;102208.51;;;14.77;76.50
18755;BME280;35061;47.664;9.166;2023-05-03T09:50:35;102199.19;;;14.82;75.59
18755;BME280;35061;47.664;9.166;2023-05-03T09:53:04;102195.13;;;14.89;76.21
18755;BME280;35061;47.664;9.166;2023-05-03T09:55:37;102203.30;;;14.90;75.68
18755;BME280;35061;47.664;9.166;2023-05-03T09:58:06;102198.30;;;14.91;74.33
18755;BME280;35061;47.664;9.166;2023-05-03T10:00:38;102201.31;;;14.97;74.69
18755;BME280;35061;47.664;9.166;2023-05-03T10:03:08;102201.12;;;15.00;72.57
18755;BME280;35061;47.664;9.166;2023-05-03T10:05:49;102203.70;;;14.98;72.97
18755;BME280;35061;47.664;9.166;2023-05-03T10:08:24;102199.55;;;14.99;72.42
18755;BME280;35061;47.664;9.166;2023-05-03T10:10:54;102194.58;;;15.00;72.38
18755;BME280;35061;47.664;9.166;2023-05-03T10:13:22;102195.88;;;14.99;71.13
18755;BME280;35061;47.664;9.166;2023-05-03T10:16:02;102189.41;;;15.04;71.69
18755;BME280;35061;47.664;9.166;2023-05-03T10:18:33;102195.00;;;15.07;70.05
18755;BME280;35061;47.664;9.166;2023-05-03T10:21:11;102186.27;;;15.17;71.33
18755;BME280;35061;47.664;9.166;2023-05-03T10:24:08;102193.56;;;15.27;71.07
18755;BME280;35061;47.664;9.166;2023-05-03T10:26:36;102189.87;;;15.27;69.40
18755;BME280;35061;47.664;9.166;2023-05-03T10:29:04;102184.73;;;15.31;69.87
18755;BME280;35061;47.664;9.166;2023-05-03T10:31:46;102191.08;;;15.35;69.16
18755;BME280;35061;47.664;9.166;2023-05-03T10:34:19;102173.39;;;15.42;68.05
18755;BME280;35061;47.664;9.166;2023-05-03T10:36:49;102172.41;;;15.45;65.90
18755;BME280;35061;47.664;9.166;2023-05-03T10:39:20;102173.29;;;15.52;67.79
18755;BME280;35061;47.664;9.166;2023-05-03T10:42:07;102164.76;;;15.57;67.80
18755;BME280;35061;47.664;9.166;2023-05-03T10:44:48;102163.74;;;15.60;66.17
18755;BME280;35061;47.664;9.166;2023-05-03T10:47:22;102167.30;;;15.70;66.42
18755;BME280;35061;47.664;9.166;2023-05-03T10:55:19;102171.23;;;15.97;64.66
18755;BME280;35061;47.664;9.166;2023-05-03T10:57:48;102163.88;;;15.96;64.43
18755;BME280;35061;47.664;9.166;2023-05-03T11:05:50;102158.64;;;16.15;63.23
18755;BME280;35061;47.664;9.166;2023-05-03T11:08:23;102155.08;;;16.21;64.17
18755;BME280;35061;47.664;9.166;2023-05-03T11:10:57;102147.26;;;16.27;63.94
18755;BME280;35061;47.664;9.166;2023-05-03T11:13:29;102146.87;;;16.34;63.47
18755;BME280;35061;47.664;9.166;2023-05-03T11:15:57;102148.05;;;16.42;63.65
18755;BME280;35061;47.664;9.166;2023-05-03T11:18:25;102150.20;;;16.48;62.78
18755;BME280;35061;47.664;9.166;2023-05-03T11:20:54;102151.87;;;16.54;62.85
18755;BME280;35061;47.664;9.166;2023-05-03T11:23:27;102155.92;;;16.63;62.81
18755;BME280;35061;47.664;9.166;2023-05-03T11:25:58;102154.06;;;16.59;61.11
18755;BME280;35061;47.664;9.166;2023-05-03T11:28:26;102147.16;;;16.57;61.24
18755;BME280;35061;47.664;9.166;2023-05-03T11:30:54;102146.15;;;16.60;61.27
18755;BME280;35061;47.664;9.166;2023-05-03T11:33:22;102145.16;;;16.63;61.53
18755;BME280;35061;47.664;9.166;2023-05-03T11:35:54;102147.81;;;16.67;60.84
18755;BME280;35061;47.664;9.166;2023-05-03T11:38:22;102151.80;;;16.69;60.55
18755;BME280;35061;47.664;9.166;2023-05-03T11:40:51;102144.52;;;16.74;60.68
18755;BME280;35061;47.664;9.166;2023-05-03T11:43:19;102138.01;;;16.79;60.62
18755;BME280;35061;47.664;9.166;2023-05-03T11:45:47;102140.46;;;16.86;60.99
18755;BME280;35061;47.664;9.166;2023-05-03T11:48:17;102136.63;;;16.95;60.79
18755;BME280;35061;47.664;9.166;2023-05-03T11:50:51;102136.73;;;17.01;60.69
18755;BME280;35061;47.664;9.166;2023-05-03T11:53:24;102142.06;;;17.08;59.78
18755;BME280;35061;47.664;9.166;2023-05-03T11:55:53;102137.35;;;17.11;59.88
18755;BME280;35061;47.664;9.166;2023-05-03T11:58:24;102140.03;;;17.14;59.72
18755;BME280;35061;47.664;9.166;2023-05-03T12:00:55;102137.25;;;17.26;59.65
18755;BME280;35061;47.664;9.166;2023-05-03T12:03:25;102143.60;;;17.30;58.71
18755;BME280;35061;47.664;9.166;2023-05-03T12:05:58;102131.04;;;17.33;59.49
18755;BME280;35061;47.664;9.166;2023-05-03T12:08:32;102129.99;;;17.36;58.97
18755;BME280;35061;47.664;9.166;2023-05-03T12:11:05;102128.52;;;17.47;58.94
18755;BME280;35061;47.664;9.166;2023-05-03T12:13:36;102122.27;;;17.54;59.17
18755;BME280;35061;47.664;9.166;2023-05-03T12:16:10;102119.95;;;17.58;58.92
18755;BME280;35061;47.664;9.166;2023-05-03T12:18:58;102110.27;;;17.67;58.43
18755;BME280;35061;47.664;9.166;2023-05-03T12:21:51;102111.13;;;17.73;57.65
18755;BME280;35061;47.664;9.166;2023-05-03T12:24:39;102099.59;;;17.79;57.39
18755;BME280;35061;47.664;9.166;2023-05-03T12:27:10;102106.74;;;17.83;57.99
18755;BME280;35061;47.664;9.166;2023-05-03T12:29:40;102112.23;;;17.81;56.73
18755;BME280;35061;47.664;9.166;2023-05-03T12:32:08;102104.06;;;17.80;57.03
18755;BME280;35061;47.664;9.166;2023-05-03T12:34:37;102091.70;;;17.79;56.66
18755;BME280;35061;47.664;9.166;2023-05-03T12:37:07;102091.73;;;17.85;56.69
18755;BME280;35061;47.664;9.166;2023-05-03T12:39:37;102090.76;;;17.94;56.90
18755;BME280;35061;47.664;9.166;2023-05-03T12:42:06;102092.09;;;17.98;56.99
18755;BME280;35061;47.664;9.166;2023-05-03T12:44:37;102096.84;;;18.02;56.81
18755;BME280;35061;47.664;9.166;2023-05-03T12:47:09;102095.59;;;18.08;56.63
18755;BME280;35061;47.664;9.166;2023-05-03T12:49:47;102086.96;;;18.14;56.65
18755;BME280;35061;47.664;9.166;2023-05-03T12:52:18;102095.92;;;18.16;56.64
18755;BME280;35061;47.664;9.166;2023-05-03T12:55:04;102089.58;;;18.12;56.10
18755;BME280;35061;47.664;9.166;2023-05-03T12:57:37;102091.70;;;18.11;56.07
18755;BME280;35061;47.664;9.166;2023-05-03T13:00:06;102076.17;;;18.15;55.72
18755;BME280;35061;47.664;9.166;2023-05-03T13:02:40;102075.88;;;18.12;55.45
18755;BME280;35061;47.664;9.166;2023-05-03T13:05:11;102073.75;;;18.13;55.58
18755;BME280;35061;47.664;9.166;2023-05-03T13:08:00;102072.73;;;18.16;55.60
18755;BME280;35061;47.664;9.166;2023-05-03T13:10:38;102075.94;;;18.24;55.65
18755;BME280;35061;47.664;9.166;2023-05-03T13:13:08;102074.86;;;18.21;53.98
18755;BME280;35061;47.664;9.166;2023-05-03T13:15:36;102070.64;;;18.17;55.22
18755;BME280;35061;47.664;9.166;2023-05-03T13:18:05;102074.05;;;18.15;54.87
18755;BME280;35061;47.664;9.166;2023-05-03T13:20:34;102056.38;;;18.13;55.21
18755;BME280;35061;47.664;9.166;2023-05-03T13:23:03;102068.23;;;18.15;55.42
18755;BME280;35061;47.664;9.166;2023-05-03T13:25:31;102058.48;;;18.12;55.13
18755;BME280;35061;47.664;9.166;2023-05-03T13:28:02;102055.60;;;18.12;55.39